Time;durP1;ratioP1;P1;durP2;ratioP2;P2;SDS_P1;SDS_P2;PMS_P1;PMS_P2;Temp;Humidity;BMP_temperature;BMP_pressure;BME280_temperature;BME280_humidity;BME280_pressure;Samples;Min_cycle;Max_cycle;Signal;HPM_P1;HPM_P2
2022/10/21 00:00:57;;;;;;;17.67;11.77;;;15.40;99.90;;;18.37;60.63;97400.19;4925175;29;20060;-47
2022/10/21 00:03:26;;;;;;;17.73;11.30;;;15.40;99.90;;;18.37;60.43;97398.31;4925265;29;20056;-46
2022/10/21 00:05:54;;;;;;;17.13;12.32;;;15.40;99.90;;;18.34;60.58;97400.63;4924964;29;20079;-49
2022/10/21 00:08:23;;;;;;;18.38;10.35;;;15.30;99.90;;;18.28;60.78;97422.00;4925303;29;20354;-49
2022/10/21 00:10:57;;;;;;;20.02;11.45;;;15.30;99.90;;;18.28;60.45;97423.84;4925277;29;20040;-47
2022/10/21 00:13:28;;;;;;;23.80;11.77;;;15.30;99.90;;;18.25;60.51;97416.22;4925053;29;20070;-46
2022/10/21 00:16:17;;;;;;;18.58;12.23;;;15.20;99.90;;;18.15;60.63;97402.41;4924357;29;20058;-52
2022/10/21 00:18:48;;;;;;;17.00;12.63;;;15.10;99.90;;;18.13;60.51;97396.41;4926891;29;20044;-47
2022/10/21 00:21:19;;;;;;;19.67;10.88;;;15.00;99.90;;;18.01;61.03;97394.38;4912218;29;20058;-48
2022/10/21 00:23:51;;;;;;;18.20;11.13;;;14.90;99.90;;;17.96;61.09;97396.88;4928365;29;20058;-47
2022/10/21 00:26:19;;;;;;;19.05;11.43;;;14.90;99.90;;;17.90;61.27;97395.06;4927723;29;20253;-47
2022/10/21 00:28:47;;;;;;;18.50;13.23;;;14.80;99.90;;;17.83;61.32;97395.03;4908427;29;20052;-48
2022/10/21 00:31:15;;;;;;;16.33;10.80;;;14.80;99.90;;;17.84;61.64;97398.59;4928338;29;20349;-47
2022/10/21 00:33:43;;;;;;;15.20;9.88;;;14.80;99.90;;;17.84;61.45;97393.22;4927681;29;20346;-49
2022/10/21 00:36:15;;;;;;;15.90;10.15;;;14.80;99.90;;;17.83;61.42;97396.91;4928046;29;20048;-48
2022/10/21 00:38:47;;;;;;;16.38;10.45;;;14.90;99.90;;;17.86;61.45;97380.38;4928169;29;20048;-49
2022/10/21 00:41:18;;;;;;;15.15;10.07;;;14.90;99.90;;;17.86;61.44;97378.50;4928407;29;20056;-49
2022/10/21 00:44:05;;;;;;;15.07;9.23;;;14.90;99.90;;;17.86;61.38;97378.50;4928235;29;20051;-47
2022/10/21 00:46:49;;;;;;;14.77;9.50;;;14.90;99.90;;;17.89;61.44;97359.22;4928109;29;20342;-47
2022/10/21 00:49:39;;;;;;;14.48;10.45;;;14.90;99.90;;;17.94;61.62;97355.06;4912444;29;20056;-47
2022/10/21 00:52:16;;;;;;;14.45;9.88;;;15.00;99.90;;;17.96;61.54;97358.38;4912751;29;20056;-48
2022/10/21 00:54:47;;;;;;;14.23;9.35;;;15.00;99.90;;;17.96;61.68;97356.50;4911314;29;20058;-46
2022/10/21 00:57:17;;;;;;;14.32;9.38;;;15.00;99.90;;;17.99;61.81;97363.31;4927760;29;20048;-46
2022/10/21 00:59:56;;;;;;;14.18;9.32;;;15.10;99.90;;;18.03;61.82;97361.81;4926999;29;20350;-48
2022/10/21 01:02:25;;;;;;;14.00;8.98;;;15.20;99.90;;;17.99;61.92;97361.47;4927829;29;20048;-46
2022/10/21 01:04:58;;;;;;;13.95;9.18;;;15.10;99.90;;;18.00;62.14;97355.00;4910938;29;20223;-48
2022/10/21 01:07:26;;;;;;;14.67;9.90;;;15.10;99.90;;;18.01;62.06;97359.38;4911622;29;20056;-47
2022/10/21 01:09:54;;;;;;;13.27;9.85;;;15.10;99.90;;;18.05;62.01;97367.84;4927577;29;20044;-48
2022/10/21 01:12:50;;;;;;;14.75;9.02;;;15.10;99.90;;;18.04;62.33;97367.00;4927808;29;20060;-47
2022/10/21 01:15:32;;;;;;;16.20;10.23;;;15.20;99.90;;;18.12;62.20;97367.81;4927079;29;20059;-46
2022/10/21 01:18:37;;;;;;;16.75;9.68;;;15.30;99.90;;;18.14;62.22;97363.84;4912147;29;20340;-48
2022/10/21 01:21:26;;;;;;;13.85;8.65;;;15.40;99.90;;;18.24;62.07;97356.13;4927092;29;20048;-47
2022/10/21 01:24:41;;;;;;;17.85;8.98;;;15.50;99.90;;;18.30;61.79;97352.56;4927419;29;20052;-46
2022/10/21 01:27:33;;;;;;;10.80;8.10;;;15.50;99.90;;;18.37;61.76;97346.28;4927304;29;20299;-47
2022/10/21 01:30:06;;;;;;;12.32;8.75;;;15.50;99.90;;;18.38;61.66;97332.59;4912153;29;20044;-47
2022/10/21 01:33:18;;;;;;;14.77;9.20;;;15.50;99.90;;;18.38;61.58;97334.47;4926855;29;20056;-47
2022/10/21 01:35:54;;;;;;;15.15;8.65;;;15.60;99.90;;;18.37;61.50;97328.25;4926816;29;20364;-47
2022/10/21 01:38:45;;;;;;;15.80;9.18;;;15.60;99.90;;;18.39;61.33;97325.34;4917690;29;20054;-48
2022/10/21 01:41:14;;;;;;;12.75;8.77;;;15.50;99.90;;;18.39;61.37;97323.47;4925942;29;20055;-48
2022/10/21 01:44:05;;;;;;;15.77;9.98;;;15.60;99.90;;;18.36;61.52;97315.84;4927281;29;20078;-50
2022/10/21 01:47:16;;;;;;;12.60;8.23;;;15.50;99.90;;;18.36;61.32;97307.75;4925047;29;20056;-49
2022/10/21 01:49:56;;;;;;;14.05;8.70;;;15.50;99.90;;;18.38;61.41;97307.50;4926965;29;20073;-50
2022/10/21 01:52:25;;;;;;;16.27;8.32;;;15.50;99.90;;;18.35;61.61;97302.56;4926574;29;20052;-49
2022/10/21 01:55:01;;;;;;;17.10;8.50;;;15.50;99.90;;;18.35;61.45;97300.69;4926540;29;20058;-46
2022/10/21 01:57:36;;;;;;;16.08;8.38;;;15.50;99.90;;;18.38;61.38;97302.13;4925583;29;20050;-47
2022/10/21 02:00:05;;;;;;;17.02;10.25;;;15.50;99.90;;;18.37;61.39;97305.88;4925905;29;20056;-48
2022/10/21 02:02:37;;;;;;;12.65;8.55;;;15.50;99.90;;;18.38;61.42;97299.44;4926755;29;20366;-47
2022/10/21 02:05:15;;;;;;;12.20;7.97;;;15.50;99.90;;;18.40;61.35;97305.44;4926483;29;20349;-46
2022/10/21 02:07:43;;;;;;;13.13;8.02;;;15.50;99.90;;;18.40;61.29;97313.53;4926586;29;20052;-48
2022/10/21 02:10:11;;;;;;;15.75;9.68;;;15.50;99.90;;;18.34;61.13;97301.75;4926349;29;20052;-49
2022/10/21 02:12:42;;;;;;;16.15;8.98;;;15.40;99.90;;;18.33;61.17;97285.81;4926570;29;20044;-50
2022/10/21 02:15:12;;;;;;;12.10;9.43;;;15.40;99.90;;;18.32;61.20;97279.59;4925304;29;20241;-48
2022/10/21 02:17:48;;;;;;;22.67;10.32;;;15.40;99.90;;;18.33;61.05;97280.41;4925615;29;20044;-47
2022/10/21 02:20:18;;;;;;;19.70;9.32;;;15.50;99.90;;;18.27;61.14;97282.13;4909723;29;20060;-46
2022/10/21 02:22:47;;;;;;;12.35;8.85;;;15.50;99.90;;;18.25;61.27;97282.31;4925302;29;20059;-47
2022/10/21 02:25:23;;;;;;;14.70;8.77;;;15.50;99.90;;;18.26;61.59;97281.28;4924983;29;20086;-51
2022/10/21 02:27:51;;;;;;;10.90;7.53;;;15.50;99.90;;;18.26;61.49;97256.19;4925411;29;20250;-46
2022/10/21 02:30:20;;;;;;;12.98;9.20;;;15.60;99.90;;;18.27;61.43;97244.41;4925197;29;20073;-47
2022/10/21 02:33:03;;;;;;;12.80;9.43;;;15.60;99.90;;;18.29;61.37;97240.41;4926320;29;20062;-46
2022/10/21 02:35:45;;;;;;;10.67;8.00;;;15.60;99.90;;;18.37;61.08;97231.25;4925965;29;20372;-48
2022/10/21 02:38:32;;;;;;;15.60;8.23;;;15.60;99.90;;;18.39;60.97;97222.94;4924806;29;20052;-48
2022/10/21 02:41:10;;;;;;;11.38;7.78;;;15.60;99.90;;;18.40;61.04;97224.59;4923805;29;20056;-47
2022/10/21 02:43:59;;;;;;;9.48;7.07;;;15.50;99.90;;;18.42;61.07;97220.63;4925032;29;20052;-48
2022/10/21 02:46:40;;;;;;;11.40;6.60;;;15.60;99.90;;;18.46;60.84;97221.03;4924911;29;20245;-48
2022/10/21 02:49:09;;;;;;;9.48;6.53;;;15.60;99.90;;;18.42;60.72;97219.81;4926204;29;20137;-51
2022/10/21 02:51:38;;;;;;;10.68;6.50;;;15.60;99.90;;;18.43;60.78;97221.44;4926112;29;20052;-47
2022/10/21 02:54:06;;;;;;;10.48;6.85;;;15.60;99.90;;;18.40;60.82;97214.63;4924737;29;20048;-52
2022/10/21 02:56:34;;;;;;;9.70;7.00;;;15.60;99.90;;;18.42;60.76;97206.34;4925813;29;20048;-51
2022/10/21 02:59:02;;;;;;;11.50;7.35;;;15.60;99.90;;;18.42;60.77;97200.94;4924739;29;20052;-46
2022/10/21 03:01:30;;;;;;;12.18;7.07;;;15.60;99.90;;;18.44;60.71;97190.78;4926036;29;20052;-48
2022/10/21 03:03:58;;;;;;;11.35;7.15;;;15.60;99.90;;;18.46;60.77;97191.38;4925865;29;20215;-48
2022/10/21 03:06:26;;;;;;;12.65;6.63;;;15.70;99.90;;;18.47;60.88;97191.13;4925686;29;20051;-47
2022/10/21 03:08:53;;;;;;;15.00;7.07;;;15.70;99.90;;;18.50;60.79;97182.59;4925767;29;20173;-49
2022/10/21 03:11:22;;;;;;;10.45;7.20;;;15.70;99.90;;;18.52;60.67;97182.38;4925525;29;20052;-48
2022/10/21 03:13:50;;;;;;;9.52;6.68;;;15.70;99.90;;;18.51;60.80;97183.41;4925727;29;20052;-47
2022/10/21 03:16:17;;;;;;;12.30;7.07;;;15.70;99.90;;;18.54;60.80;97177.59;4925798;29;20062;-48
2022/10/21 03:18:50;;;;;;;11.60;7.27;;;15.70;99.90;;;18.54;60.72;97184.88;4926058;29;20048;-46
2022/10/21 03:21:18;;;;;;;11.43;7.18;;;15.60;99.90;;;18.48;60.76;97176.63;4925841;29;20054;-46
2022/10/21 03:23:46;;;;;;;14.75;7.78;;;15.60;99.90;;;18.50;60.67;97176.41;4925539;29;20060;-45
2022/10/21 03:26:14;;;;;;;11.73;6.70;;;15.60;99.90;;;18.53;60.73;97169.72;4925255;29;20056;-46
2022/10/21 03:28:42;;;;;;;11.25;6.43;;;15.60;99.90;;;18.52;60.59;97165.41;4925049;29;20048;-47
2022/10/21 03:31:09;;;;;;;14.32;6.72;;;15.60;99.90;;;18.54;60.66;97174.09;4924350;29;20388;-47
2022/10/21 03:33:37;;;;;;;10.05;6.85;;;15.70;99.90;;;18.54;60.71;97166.81;4925670;29;20250;-48
2022/10/21 03:36:06;;;;;;;10.05;6.55;;;15.70;99.90;;;18.56;60.68;97169.28;4925061;29;20079;-46
2022/10/21 03:38:34;;;;;;;11.60;6.65;;;15.70;99.90;;;18.60;61.03;97159.72;4925558;29;20249;-49
2022/10/21 03:41:02;;;;;;;8.98;6.63;;;15.80;99.90;;;18.64;60.79;97167.13;4924726;29;20052;-48
2022/10/21 03:43:30;;;;;;;13.15;5.88;;;15.90;99.90;;;18.69;60.65;97161.06;4925288;29;20071;-47
2022/10/21 03:45:57;;;;;;;8.10;5.68;;;15.90;99.90;;;18.70;60.72;97162.69;4908321;29;20052;-48
2022/10/21 03:48:25;;;;;;;9.25;5.65;;;16.00;99.90;;;18.72;60.72;97165.16;4924873;29;20056;-46
2022/10/21 03:50:55;;;;;;;10.90;6.05;;;16.00;99.90;;;18.78;60.79;97166.97;4908811;29;20126;-47
2022/10/21 03:53:23;;;;;;;14.20;5.05;;;16.00;99.90;;;18.79;60.59;97174.03;4926604;29;20047;-46
2022/10/21 03:56:10;;;;;;;9.43;5.78;;;16.10;99.90;;;18.80;60.70;97175.69;4928694;29;20059;-51
2022/10/21 03:58:39;;;;;;;13.77;6.00;;;16.10;99.90;;;18.72;60.76;97170.56;4929100;29;20048;-48
2022/10/21 04:01:11;;;;;;;12.38;5.93;;;16.10;99.90;;;18.78;60.77;97150.78;4928786;29;20249;-47
2022/10/21 04:03:40;;;;;;;12.20;5.95;;;16.10;99.90;;;18.81;61.03;97166.56;4929010;29;20051;-47
2022/10/21 04:06:08;;;;;;;13.70;6.30;;;16.20;99.90;;;18.68;61.85;97165.59;4928335;29;20082;-47
2022/10/21 04:08:36;;;;;;;11.13;4.32;;;16.20;99.90;;;18.80;61.64;97173.81;4912347;29;20056;-46
2022/10/21 04:11:04;;;;;;;10.70;4.70;;;16.20;99.90;;;18.80;61.58;97149.53;4928508;29;20044;-46
2022/10/21 04:13:32;;;;;;;14.00;4.75;;;16.20;99.90;;;18.84;61.51;97144.50;4928907;29;20364;-50
2022/10/21 04:16:04;;;;;;;6.97;4.95;;;16.20;99.90;;;18.91;61.59;97139.06;4927623;29;20367;-45
2022/10/21 04:18:33;;;;;;;11.18;7.32;;;16.20;99.90;;;18.94;61.42;97127.81;4928905;29;20052;-46
2022/10/21 04:21:01;;;;;;;9.93;5.40;;;16.20;99.90;;;18.91;61.40;97133.66;4927952;29;20052;-49
2022/10/21 04:23:28;;;;;;;9.77;5.20;;;16.20;99.90;;;18.93;61.29;97140.47;4928565;29;20056;-46
2022/10/21 04:25:56;;;;;;;9.10;5.22;;;16.20;99.90;;;18.93;61.25;97139.66;4911418;29;20055;-48
2022/10/21 04:28:24;;;;;;;10.38;5.63;;;16.20;99.90;;;18.95;61.05;97148.34;4928634;29;20052;-48
2022/10/21 04:30:52;;;;;;;10.60;5.30;;;16.20;99.90;;;18.96;61.08;97136.47;4928266;29;20048;-46
2022/10/21 04:33:20;;;;;;;10.07;5.78;;;16.30;99.90;;;18.95;61.03;97135.66;4928564;29;20284;-50
2022/10/21 04:35:48;;;;;;;11.73;6.18;;;16.30;99.90;;;18.97;61.09;97130.06;4927934;29;20052;-46
2022/10/21 04:38:16;;;;;;;10.48;5.57;;;16.20;99.90;;;18.99;61.03;97127.94;4928069;29;20052;-48
2022/10/21 04:40:43;;;;;;;9.60;5.65;;;16.20;99.90;;;18.94;61.15;97133.19;4927627;29;20335;-45
2022/10/21 04:43:11;;;;;;;9.70;5.55;;;16.20;99.90;;;18.94;61.04;97127.81;4928241;29;20056;-46
2022/10/21 04:45:40;;;;;;;9.25;6.10;;;16.20;99.90;;;18.96;61.07;97126.53;4910656;29;20063;-46
2022/10/21 04:48:07;;;;;;;13.45;5.72;;;16.20;99.90;;;18.99;60.88;97126.06;4928289;29;20054;-46
2022/10/21 04:50:35;;;;;;;15.15;6.35;;;16.20;99.90;;;18.99;61.08;97120.69;4928067;29;20075;-46
2022/10/21 04:53:03;;;;;;;15.90;5.55;;;16.20;99.90;;;18.97;61.00;97106.59;4928035;29;20050;-48
2022/10/21 04:55:31;;;;;;;12.27;6.05;;;16.10;99.90;;;19.00;60.97;97118.78;4927444;29;20058;-48
2022/10/21 04:57:59;;;;;;;13.98;5.47;;;16.20;99.90;;;18.99;61.13;97117.97;4927694;29;20052;-46
2022/10/21 05:00:27;;;;;;;10.82;5.78;;;16.20;99.90;;;19.03;61.00;97115.66;4927395;29;20062;-46
2022/10/21 05:02:55;;;;;;;9.32;5.00;;;16.20;99.90;;;19.02;60.94;97114.84;4927806;29;20056;-45
2022/10/21 05:05:23;;;;;;;11.68;5.28;;;16.20;99.90;;;19.03;60.81;97119.16;4926909;29;20056;-46
2022/10/21 05:07:51;;;;;;;9.82;6.40;;;16.20;99.90;;;19.06;60.73;97120.59;4927783;29;20058;-46
2022/10/21 05:10:18;;;;;;;10.23;4.57;;;16.20;99.90;;;19.06;60.88;97121.41;4927795;29;20048;-47
2022/10/21 05:12:46;;;;;;;10.07;4.82;;;16.20;99.90;;;19.06;60.69;97121.41;4927337;29;20054;-47
2022/10/21 05:15:14;;;;;;;8.57;4.47;;;16.30;99.90;;;19.06;60.84;97126.81;4926512;29;20125;-46
2022/10/21 05:17:42;;;;;;;7.82;4.30;;;16.30;99.90;;;19.05;60.87;97125.16;4927739;29;20058;-46
2022/10/21 05:20:10;;;;;;;9.60;5.00;;;16.30;99.90;;;19.02;60.96;97120.22;4926941;29;20250;-46
2022/10/21 05:22:38;;;;;;;8.73;4.20;;;16.30;99.90;;;19.05;60.99;97118.94;4927402;29;20062;-45
2022/10/21 05:25:07;;;;;;;8.52;4.25;;;16.30;99.90;;;19.06;60.99;97117.91;4926947;29;20341;-46
2022/10/21 05:27:35;;;;;;;10.77;4.57;;;16.30;99.90;;;19.10;60.95;97115.56;4927268;29;20048;-46
2022/10/21 05:30:04;;;;;;;9.40;4.57;;;16.30;99.90;;;19.05;61.06;97114.38;4910507;29;20055;-48
2022/10/21 05:32:32;;;;;;;10.88;5.15;;;16.30;99.90;;;19.00;61.10;97116.94;4927148;29;20047;-47
2022/10/21 05:35:00;;;;;;;10.38;4.97;;;16.30;99.90;;;18.97;61.35;97114.69;4926908;29;20044;-47
2022/10/21 05:37:28;;;;;;;12.40;5.50;;;16.30;99.90;;;19.00;61.11;97121.50;4926824;29;20054;-46
2022/10/21 05:39:56;;;;;;;13.00;4.68;;;16.30;99.90;;;18.98;61.29;97113.66;4927167;29;20055;-48
2022/10/21 05:42:24;;;;;;;7.80;3.97;;;16.30;99.90;;;19.00;61.28;97122.34;4926126;29;20052;-46
2022/10/21 05:44:52;;;;;;;8.35;4.93;;;16.30;99.90;;;18.95;61.67;97115.97;4926662;29;20345;-46
2022/10/21 05:47:22;;;;;;;8.95;4.35;;;16.30;99.90;;;19.01;61.35;97113.19;4927061;29;20056;-48
2022/10/21 05:49:51;;;;;;;11.45;5.13;;;16.30;99.90;;;19.03;61.36;97112.97;4910565;29;20058;-50
2022/10/21 05:52:19;;;;;;;15.45;4.88;;;16.30;99.90;;;19.01;61.48;97115.88;4926785;29;20048;-47
2022/10/21 05:54:47;;;;;;;6.72;3.88;;;16.30;99.90;;;18.99;61.64;97115.28;4926276;29;20056;-48
2022/10/21 05:57:15;;;;;;;9.05;4.78;;;16.30;99.90;;;18.91;62.03;97114.78;4927015;29;20046;-46
2022/10/21 05:59:43;;;;;;;11.07;4.35;;;16.30;99.90;;;18.92;61.90;97116.41;4925793;29;20051;-46
2022/10/21 06:02:11;;;;;;;11.30;4.10;;;16.30;99.90;;;18.97;61.94;97117.38;4926539;29;20241;-48
2022/10/21 06:04:39;;;;;;;11.15;4.88;;;16.20;99.90;;;18.89;62.04;97105.03;4926088;29;20056;-46
2022/10/21 06:07:07;;;;;;;9.75;4.88;;;16.20;99.90;;;18.89;62.24;97115.00;4926744;29;20074;-46
2022/10/21 06:09:36;;;;;;;11.30;3.90;;;16.30;99.90;;;18.93;62.09;97104.59;4926705;29;20052;-51
2022/10/21 06:12:05;;;;;;;11.98;4.60;;;16.20;99.90;;;18.99;61.96;97106.38;4927190;29;20233;-47
2022/10/21 06:14:36;;;;;;;10.27;4.82;;;16.30;99.90;;;19.00;62.02;97099.91;4926127;29;20253;-47
2022/10/21 06:17:04;;;;;;;11.48;5.18;;;16.30;99.90;;;18.99;61.98;97103.69;4925848;29;20044;-48
2022/10/21 06:19:32;;;;;;;7.95;3.97;;;16.20;99.90;;;18.96;62.15;97096.03;4926561;29;20070;-49
2022/10/21 06:22:00;;;;;;;7.53;3.25;;;16.30;99.90;;;19.01;61.92;97090.78;4925884;29;20080;-46
2022/10/21 06:24:28;;;;;;;12.57;4.63;;;16.30;99.90;;;19.02;61.87;97093.25;4925984;29;20238;-46
2022/10/21 06:26:56;;;;;;;10.00;4.80;;;16.40;99.90;;;19.04;61.83;97095.72;4925683;29;20064;-46
2022/10/21 06:29:26;;;;;;;14.95;4.53;;;16.30;99.90;;;19.05;61.89;97111.66;4926419;29;20242;-47
2022/10/21 06:31:54;;;;;;;12.35;5.90;;;16.30;99.90;;;19.03;62.04;97118.34;4923667;29;20051;-48
2022/10/21 06:34:22;;;;;;;9.25;4.22;;;16.30;99.90;;;19.07;61.85;97114.94;4925883;29;20048;-48
2022/10/21 06:36:50;;;;;;;9.73;5.10;;;16.30;99.90;;;19.03;62.12;97121.03;4908644;29;20058;-48
2022/10/21 06:39:17;;;;;;;11.50;5.05;;;16.30;99.90;;;19.08;61.93;97108.53;4926176;29;20058;-50
2022/10/21 06:41:45;;;;;;;10.98;4.15;;;16.30;99.90;;;19.08;62.01;97113.09;4925310;29;20528;-50
2022/10/21 06:44:30;;;;;;;10.43;4.20;;;16.30;99.90;;;19.12;61.88;97116.16;4924048;29;20354;-50
2022/10/21 06:46:57;;;;;;;11.82;3.90;;;16.30;99.90;;;19.12;62.02;97135.06;4926049;29;20055;-47
2022/10/21 06:49:25;;;;;;;7.68;4.10;;;16.30;99.90;;;19.12;61.88;97143.16;4908845;29;20257;-47
2022/10/21 06:51:53;;;;;;;9.02;4.05;;;16.30;99.90;;;19.13;62.10;97158.28;4925870;29;20198;-46
2022/10/21 06:54:21;;;;;;;12.30;4.30;;;16.30;99.90;;;19.11;62.04;97173.88;4925457;29;20124;-47
2022/10/21 06:56:49;;;;;;;11.27;4.00;;;16.30;99.90;;;19.02;62.24;97198.47;4925275;29;20052;-46
2022/10/21 06:59:17;;;;;;;8.35;3.85;;;16.30;99.90;;;19.02;62.32;97203.03;4925412;29;20062;-48
2022/10/21 07:01:45;;;;;;;10.35;4.50;;;16.30;99.90;;;19.02;62.34;97173.38;4925806;29;20048;-46
2022/10/21 07:04:28;;;;;;;8.63;4.95;;;16.30;99.90;;;19.06;62.23;97172.66;4925229;29;20250;-45
2022/10/21 07:06:56;;;;;;;5.82;3.92;;;16.30;99.90;;;19.03;62.38;97159.63;4925884;29;20052;-45
2022/10/21 07:09:24;;;;;;;7.65;4.03;;;16.20;99.90;;;19.05;62.25;97146.72;4925523;29;20346;-46
2022/10/21 07:11:52;;;;;;;7.45;3.72;;;16.20;99.90;;;19.08;62.24;97156.25;4925534;29;20060;-46
2022/10/21 07:14:21;;;;;;;9.93;4.80;;;16.20;99.90;;;19.09;62.03;97157.91;4925202;29;20044;-48
2022/10/21 07:16:50;;;;;;;10.85;4.43;;;16.20;99.90;;;19.05;62.30;97154.00;4925744;29;20063;-46
2022/10/21 07:19:18;;;;;;;7.25;3.90;;;16.20;99.90;;;19.10;62.36;97147.94;4925738;29;20052;-51
2022/10/21 07:21:46;;;;;;;8.10;4.28;;;16.20;99.90;;;19.13;62.18;97147.47;4925661;29;20049;-46
2022/10/21 07:24:14;;;;;;;7.40;4.40;;;16.20;99.90;;;19.17;62.15;97143.28;4908703;29;20231;-45
2022/10/21 07:26:48;;;;;;;8.73;3.58;;;16.30;99.90;;;19.20;62.11;97135.53;4925731;29;20056;-47
2022/10/21 07:29:16;;;;;;;8.52;3.88;;;16.30;99.90;;;19.21;62.00;97128.25;4929330;29;20071;-45
2022/10/21 07:31:44;;;;;;;9.63;3.78;;;16.30;99.90;;;19.21;62.10;97134.50;4929547;29;20110;-46
2022/10/21 07:34:12;;;;;;;7.50;3.30;;;16.30;99.90;;;19.19;62.06;97143.88;4928810;29;20257;-45
2022/10/21 07:36:46;;;;;;;13.68;4.40;;;16.20;99.90;;;19.19;62.10;97166.28;4928726;29;20060;-46
2022/10/21 07:39:16;;;;;;;6.07;3.22;;;16.20;99.90;;;19.19;61.87;97176.25;4928602;29;20262;-46
2022/10/21 07:41:51;;;;;;;9.25;4.72;;;16.20;99.90;;;19.12;61.77;97172.81;4928046;29;20052;-47
2022/10/21 07:44:22;;;;;;;11.60;4.60;;;16.20;99.90;;;19.07;62.24;97186.97;4929032;29;20328;-46
2022/10/21 07:46:51;;;;;;;6.60;3.60;;;16.20;99.90;;;19.06;62.18;97194.25;4929076;29;20059;-49
2022/10/21 07:49:21;;;;;;;10.75;3.45;;;16.20;99.90;;;19.08;61.98;97186.75;4928823;29;20056;-48
2022/10/21 07:51:49;;;;;;;12.15;5.05;;;16.20;99.90;;;19.08;62.17;97158.97;4928974;29;20305;-45
2022/10/21 07:54:18;;;;;;;11.60;3.90;;;16.30;99.90;;;19.13;62.10;97156.38;4928640;29;20052;-49
2022/10/21 07:56:50;;;;;;;14.88;6.50;;;16.30;99.90;;;19.10;62.13;97151.47;4928383;29;20048;-47
2022/10/21 07:59:20;;;;;;;4.82;3.60;;;16.30;99.90;;;19.12;62.34;97143.16;4918359;29;20071;-47
2022/10/21 08:01:48;;;;;;;7.47;3.15;;;16.30;99.90;;;19.08;62.14;97145.47;4924235;29;20052;-47
2022/10/21 08:04:28;;;;;;;5.85;3.05;;;16.30;99.90;;;19.11;61.98;97145.00;4923274;29;20051;-48
2022/10/21 08:06:57;;;;;;;8.77;2.97;;;16.30;99.90;;;19.14;62.00;97130.25;4924818;29;20051;-47
2022/10/21 08:09:25;;;;;;;8.05;3.20;;;16.30;99.90;;;19.14;61.79;97138.34;4906967;29;20262;-47
2022/10/21 08:11:54;;;;;;;4.55;2.80;;;16.30;99.90;;;19.17;61.79;97133.28;4907850;29;20381;-47
2022/10/21 08:14:34;;;;;;;5.68;3.38;;;16.30;99.90;;;19.21;61.80;97147.16;4906188;29;20358;-45
2022/10/21 08:17:03;;;;;;;5.78;2.75;;;16.30;99.90;;;19.24;61.70;97161.00;4924679;29;20051;-45
2022/10/21 08:19:31;;;;;;;7.75;3.25;;;16.40;99.90;;;19.25;61.71;97172.63;4924037;29;20052;-45
2022/10/21 08:22:00;;;;;;;6.72;4.43;;;16.50;99.90;;;19.30;61.86;97175.47;4923626;29;20043;-46
2022/10/21 08:24:29;;;;;;;6.45;3.42;;;16.50;99.90;;;19.32;61.87;97167.97;4923284;29;20052;-47
2022/10/21 08:26:57;;;;;;;6.60;3.90;;;16.50;99.90;;;19.35;61.98;97164.84;4923902;29;20055;-45
2022/10/21 08:29:25;;;;;;;10.43;4.38;;;16.60;99.90;;;19.39;61.83;97176.00;4923874;29;20052;-45
2022/10/21 08:31:53;;;;;;;9.55;5.18;;;16.60;99.90;;;19.39;61.86;97176.00;4923672;29;20116;-47
2022/10/21 08:34:21;;;;;;;9.45;5.07;;;16.60;99.90;;;19.38;61.88;97180.53;4922859;29;20245;-47
2022/10/21 08:36:49;;;;;;;8.82;4.40;;;16.60;99.90;;;19.36;61.90;97173.75;4923846;29;20062;-46
2022/10/21 08:39:17;;;;;;;8.85;5.00;;;16.60;99.90;;;19.36;61.96;97165.66;4922739;29;20048;-45
2022/10/21 08:42:14;;;;;;;8.95;5.18;;;16.60;99.90;;;19.28;62.06;97167.59;4923295;29;20055;-46
2022/10/21 08:44:57;;;;;;;8.88;5.47;;;16.60;99.90;;;19.30;62.14;97171.97;4921845;29;20066;-47
2022/10/21 08:47:44;;;;;;;10.93;5.53;;;16.50;99.90;;;19.31;62.17;97177.13;4921313;29;20334;-46
2022/10/21 08:50:17;;;;;;;15.15;5.60;;;16.50;99.90;;;19.30;62.19;97164.69;4922715;29;20069;-46
2022/10/21 08:52:51;;;;;;;8.77;4.55;;;16.60;99.90;;;19.33;62.19;97188.53;4922900;29;20059;-47
2022/10/21 08:55:27;;;;;;;;;;;16.50;99.90;;;19.42;61.80;97189.84;4907823;29;20052;-48
2022/10/21 08:57:55;;;;;;;10.40;5.20;;;16.40;99.90;;;19.42;61.72;97183.63;4908184;29;19927;-50
2022/10/21 09:00:31;;;;;;;10.82;5.70;;;16.40;99.90;;;19.36;62.14;97230.41;4906456;29;20048;-48
2022/10/21 09:03:33;;;;;;;11.18;6.07;;;16.40;99.90;;;19.33;62.17;97226.31;4906974;29;20261;-49
2022/10/21 09:06:41;;;;;;;14.63;6.70;;;16.40;99.90;;;19.36;62.07;97216.91;4921432;29;20048;-45
2022/10/21 09:09:37;;;;;;;10.43;5.28;;;16.40;99.90;;;19.33;62.13;97210.13;4922668;29;20402;-48
2022/10/21 09:12:28;;;;;;;11.63;6.50;;;16.40;99.90;;;19.36;62.26;97215.03;4908042;29;20059;-50
2022/10/21 09:15:20;;;;;;;7.65;5.28;;;16.40;99.90;;;19.36;62.25;97222.31;4923108;29;20051;-47
2022/10/21 09:18:39;;;;;;;12.15;7.28;;;16.40;99.90;;;19.34;62.25;97227.13;4923693;29;20046;-48
2022/10/21 09:21:24;;;;;;;10.95;7.57;;;16.40;99.90;;;19.37;62.35;97250.97;4922441;29;20048;-46
2022/10/21 09:24:15;;;;;;;13.20;6.40;;;16.40;99.90;;;19.36;62.32;97242.03;4927077;29;20066;-45
2022/10/21 09:26:48;;;;;;;10.45;5.10;;;16.40;99.90;;;19.34;62.48;97263.03;4926923;29;20252;-45
2022/10/21 09:29:46;;;;;;;12.85;6.22;;;16.40;99.90;;;19.39;62.23;97249.69;4910868;29;20059;-45
2022/10/21 09:32:23;;;;;;;11.52;4.95;;;16.40;99.90;;;19.41;62.39;97265.66;4923836;29;20044;-46
2022/10/21 09:35:12;;;;;;;8.77;4.97;;;16.40;99.90;;;19.39;62.48;97275.88;4910983;29;20048;-46
2022/10/21 09:37:51;;;;;;;10.52;5.20;;;16.40;99.90;;;19.31;62.61;97285.09;4926836;29;20048;-46
2022/10/21 09:40:29;;;;;;;8.13;5.45;;;16.30;99.90;;;19.21;62.91;97269.44;4911418;29;20062;-46
2022/10/21 09:43:00;;;;;;;8.20;4.90;;;16.30;99.90;;;19.19;63.02;97271.53;4926865;29;20074;-47
2022/10/21 09:45:38;;;;;;;8.52;5.35;;;16.30;99.90;;;19.23;63.15;97261.94;4926724;29;20052;-47
2022/10/21 09:48:16;;;;;;;8.10;4.75;;;16.30;99.90;;;19.27;63.00;97270.41;4910571;29;20058;-47
2022/10/21 09:51:04;;;;;;;5.68;3.85;;;16.30;99.90;;;19.29;62.90;97268.28;4927027;29;20052;-47
2022/10/21 09:53:57;;;;;;;6.80;3.40;;;16.40;99.90;;;19.35;63.11;97267.38;4911209;29;20052;-46
2022/10/21 09:57:01;;;;;;;9.85;4.22;;;16.40;99.90;;;19.43;62.86;97261.66;4926649;29;20052;-47
2022/10/21 09:59:31;;;;;;;9.20;4.32;;;16.50;99.90;;;19.53;63.05;97265.72;4898686;29;20064;-47
2022/10/21 10:02:13;;;;;;;10.13;4.72;;;16.60;99.90;;;19.61;62.97;97265.38;4926520;29;20358;-46
2022/10/21 10:04:41;;;;;;;10.88;5.22;;;16.70;99.90;;;19.62;62.90;97272.47;4926225;29;20361;-45
2022/10/21 10:07:34;;;;;;;7.88;3.67;;;16.70;99.90;;;19.67;62.77;97272.56;4926766;29;20059;-48
2022/10/21 10:10:32;;;;;;;5.17;3.13;;;16.70;99.90;;;19.67;62.75;97270.69;4910356;29;20074;-47
2022/10/21 10:13:00;;;;;;;5.15;2.88;;;16.70;99.90;;;19.70;62.70;97271.28;4909928;29;20355;-49
2022/10/21 10:15:35;;;;;;;8.40;3.72;;;16.70;99.90;;;19.70;62.82;97268.59;4925937;29;20384;-47
2022/10/21 10:18:03;;;;;;;7.70;3.20;;;16.70;99.90;;;19.72;62.47;97266.53;4926550;29;20044;-48
2022/10/21 10:20:31;;;;;;;6.30;3.65;;;16.80;99.90;;;19.79;62.71;97283.44;4926308;29;20050;-47
2022/10/21 10:22:59;;;;;;;5.80;2.88;;;16.90;99.90;;;19.83;62.44;97279.25;4926501;29;20051;-48
2022/10/21 10:25:36;;;;;;;7.38;4.00;;;16.90;99.90;;;19.85;62.42;97275.28;4925607;29;20052;-46
2022/10/21 10:28:17;;;;;;;6.32;3.00;;;17.00;99.90;;;19.89;62.26;97280.19;4910391;29;20056;-46
2022/10/21 10:30:56;;;;;;;8.27;3.55;;;16.90;99.90;;;19.90;62.36;97279.16;4909861;29;20052;-47
2022/10/21 10:33:34;;;;;;;4.65;3.17;;;16.90;99.90;;;19.93;62.27;97270.59;4909830;29;20354;-45
2022/10/21 10:36:05;;;;;;;5.93;3.05;;;17.00;99.90;;;19.98;62.43;97265.31;4925667;29;20231;-46
2022/10/21 10:38:51;;;;;;;5.25;3.67;;;17.10;99.90;;;20.02;62.41;97270.03;4914071;29;20051;-47
2022/10/21 10:41:19;;;;;;;4.65;2.85;;;17.10;99.90;;;20.06;62.10;97276.63;4924985;29;20048;-47